Tiempo atmosférico en la estación meteorológica de Biescas, Huesca (1100 m.)



Fecha
DESCASC
Temp. máxima en grados centígrados (hora)
DESCASC
Temp. mínima en grados centígrados (hora)
DESCASC
Temp. media en grados centígrados
DESCASC
Racha de viento máxima en m/sg (hora)
DESCASC
Velocidad máxima media en intervalos de 10 minutos(hora)
DESCASC
Precipitaciones diarias en mm
DESCASC
Precipitaciones de 00:00 a 06:00 en mm
DESCASC
Precipitaciones de 06:00 a 12:00 en mm
DESCASC
Precipitaciones de 12:00 a 18:00 en mm
DESCASC
Precipitaciones de 18:00 a 24:00 en mm
DESCASC
20-05-2018 18.1 (12:30) 5.2 (06:40) 11.7 8.06 (15:40) 3.33 (15:40) 11.6 0 0 0 11.6
19-05-2018 19.8 (14:10) 5.3 (07:00) 12.5 8.89 (16:50) 4.17 (16:50) 0 0 0 0 0
18-05-2018 19 (13:30) 5.6 (00:00) 12.3 9.17 (15:50) 3.89 (15:40) 0 0 0 0 0
17-05-2018 19.4 (16:10) 4.7 (00:00) 12 5.56 (13:30) 2.78 (15:00) 0 0 0 0 0
16-05-2018 19.1 (15:20) 4.9 (00:00) 12 5.56 (13:40) 2.5 (12:00) 0 0 0 0 0
15-05-2018 13.5 (16:50) 5.6 (00:00) 9.5 8.33 (00:40) 2.78 (10:10) 0 0 0 0 0
14-05-2018 11.1 (13:40) 1.1 (00:00) 6.1 11.94 (15:30) 4.44 (13:50) 0 0 0 0 0
13-05-2018 10.2 (15:20) 1 (00:00) 5.6 9.17 (13:50) 3.61 (13:00) 0.2 0 0 0 0.2
12-05-2018 15.3 (13:00) 2.9 (00:00) 9.1 8.61 (13:00) 2.78 (15:00) 11.4 5.4 0 3.4 2.6
11-05-2018 20.8 (16:40) 3.9 (06:50) 12.3 6.39 (13:30) 2.78 (13:40) 0 0 0 0 0
10-05-2018 17.2 (15:10) 6.8 (00:00) 12 6.39 (16:00) 2.78 (15:50) 0 0 0 0 0
09-05-2018 20.1 (16:00) 5.4 (00:00) 12.8 5.28 (11:50) 1.67 (11:50) 0 0 0 0 0
08-05-2018 20.4 (15:50) 9.3 (00:00) 14.8 9.17 (16:20) 3.61 (17:40) 0.2 0.2 0 0 0
07-05-2018 21.9 (15:50) 7.4 (00:00) 14.6 9.72 (19:40) 4.72 (19:30) 5.4 0 0 0 5.4
06-05-2018 20.5 (14:30) 5 (00:00) 12.8 7.5 (19:30) 3.61 (19:40) 0 0 0 0 0
05-05-2018 20.1 (15:20) 6 (00:00) 13.1 6.67 (17:30) 3.61 (17:50) 0 0 0 0 0
04-05-2018 16.3 (13:30) 5 (00:00) 10.6 7.5 (13:10) 2.5 (02:20) 0 0 0 0 0
03-05-2018 10.9 (14:00) 5.1 (00:00) 8 13.06 (17:00) 6.11 (16:40) 2 2 0 0 0
02-05-2018 13.4 (14:10) -2.2 (-00:0) 5.6 8.33 (16:50) 2.78 (16:20) 0 0 0 0 0
01-05-2018 10.3 (15:50) -0.2 (03:00) 5.1 8.33 (16:10) 3.61 (16:20) 0 0 0 0 0
30-04-2018 8.2 (14:30) 1.1 (00:00) 4.6 7.5 (13:50) 3.61 (13:50) 3.4 2.2 0.8 0.2 0.2
29-04-2018 9.4 (01:50) 2.6 (00:00) 6 7.78 (13:30) 3.06 (17:30) 26.6 13.8 3.2 4.8 4.8
28-04-2018 14.8 (14:10) 8.3 (00:00) 11.6 9.72 (16:30) 3.33 (12:50) 25.4 1 0 12 12.4
27-04-2018 19.9 (15:00) 7.3 (00:00) 13.6 8.06 (14:00) 3.89 (14:30) 0 0 0 0 0
26-04-2018 21.3 (17:00) 6.2 (00:00) 13.7 8.06 (14:30) 4.17 (15:10) 0 0 0 0 0
25-04-2018 23.5 (14:20) 6.6 (00:00) 15 6.67 (17:10) 2.78 (16:20) 0 0 0 0 0
24-04-2018 22.4 (16:50) 4.4 (00:00) 13.4 5.83 (13:20) 3.33 (12:30) 0 0 0 0 0
23-04-2018 17.1 (12:50) 7.1 (00:00) 12.1 7.22 (15:50) 3.89 (15:40) 0.2 0 0 0.2 0
22-04-2018 21.2 (14:20) 5.6 (00:00) 13.4 8.06 (14:30) 3.33 (16:30) 0 0 0 0 0

Gráficas

Temp. máximas Temp. mínimas Temp. medias Precipitaciones Rachas de viento máximas Velocidades máximas media en intervalos de 10 minutos

Datos horarios

Fecha y hora oficial Temperatura (ºC) Velocidad del viento (km/h) Dirección del viento Racha (km/h) Dirección de racha Precipitación (mm) Presión (hPa) Tendencia (hPa) Humedad (%)
2018-05-21 23:00:00 10 0 Calma 5 Sur 0 -- -- 93
2018-05-21 22:00:00 10.7 0 Calma 2 Oeste 0.2 -- -- 91
2018-05-21 21:00:00 11.2 0 Calma 2 Noroeste 0.2 -- -- 92
2018-05-21 20:00:00 11.7 0 Calma 4 Sudeste 0 -- -- 91
2018-05-21 19:00:00 11.8 0 Calma 3 Noroeste 1 -- -- 91
2018-05-21 18:00:00 11.9 0 Calma 3 Sudoeste 0.6 -- -- 89
2018-05-21 17:00:00 12.4 0 Calma 7 Noroeste 0 -- -- 86
2018-05-21 16:00:00 12.9 4 Noroeste 25 Sudoeste 0.4 -- -- 82
2018-05-21 15:00:00 14.8 14 Oeste 27 Oeste 0 -- -- 61
2018-05-21 14:00:00 16.8 8 Sudeste 19 Sudeste 0 -- -- 59
2018-05-21 13:00:00 14.7 3 Oeste 13 Sur 0.2 -- -- 65
2018-05-21 12:00:00 15.5 5 Sur 18 Sudeste 0 -- -- 60
2018-05-21 11:00:00 13.7 3 Este 10 Este 0 -- -- 74
2018-05-21 10:00:00 13.1 3 Sudeste 5 Este 0 -- -- 80
2018-05-21 09:00:00 10.6 2 Este 5 Nordeste 0 -- -- 91
2018-05-21 08:00:00 8.4 0 Calma -- -- 0.2 -- -- 96
2018-05-21 07:00:00 8.4 0 Calma -- -- 0 -- -- 94
2018-05-21 06:00:00 8.5 0 Calma -- -- 0 -- -- 95
2018-05-21 05:00:00 8.6 0 Calma 2 Oeste 0 -- -- 95
2018-05-21 04:00:00 8.8 0 Calma -- -- 0 -- -- 94
2018-05-21 03:00:00 8.9 0 Calma -- -- 0 -- -- 94
2018-05-21 02:00:00 9 0 Calma 2 Sudoeste 0 -- -- 93
2018-05-21 01:00:00 9.1 0 Calma 3 Oeste 0 -- -- 92
2018-05-21 00:00:00 9.6 0 Calma 3 Noroeste 1 -- -- 92
2018-05-20 23:00:00 10.1 0 Calma 3 Sur 5.2 -- -- 91
2018-05-20 22:00:00 10.9 0 Calma 5 Sudeste 4.8 -- -- 89
2018-05-20 21:00:00 11.8 4 Oeste 13 Oeste 0.6 -- -- 83
2018-05-20 20:00:00 13.5 3 Noroeste 16 Oeste 0 -- -- 71
2018-05-20 19:00:00 15.9 3 Nordeste 12 Nordeste 0 -- -- 58
2018-05-20 18:00:00 16.5 4 Oeste 21 Sudeste 0 -- -- 53
2018-05-20 17:00:00 16.2 6 Norte 15 Noroeste 0 -- -- 57
2018-05-20 16:00:00 15.5 6 Este 29 Sur 0 -- -- 63
2018-05-20 15:00:00 15.8 5 Sudeste 21 Sudeste 0 -- -- 62
2018-05-20 14:00:00 17.2 4 Sudeste 9 Sur 0 -- -- 49
2018-05-20 13:00:00 16.9 3 Sudeste 15 Este 0 -- -- 53
2018-05-20 12:00:00 17.1 5 Sudeste 19 Sudeste 0 -- -- 59
2018-05-20 11:00:00 14.4 3 Sudeste 13 Sudeste 0 -- -- 63
2018-05-20 10:00:00 12.9 2 Este 4 Este 0 -- -- 69
2018-05-20 09:00:00 8.5 2 Norte 5 Este 0 -- -- 83
2018-05-20 08:00:00 5.8 0 Calma -- -- 0 -- -- 94
2018-05-20 07:00:00 5.2 0 Calma -- -- 0 -- -- 92
2018-05-20 06:00:00 5.5 0 Calma -- -- 0 -- -- 90
2018-05-20 05:00:00 6 0 Calma -- -- 0 -- -- 89
2018-05-20 04:00:00 6.6 0 Calma 2 Oeste 0 -- -- 88
2018-05-20 03:00:00 7.4 0 Calma 3 Sudoeste 0 -- -- 85
2018-05-20 02:00:00 8.3 0 Calma 5 Sur 0 -- -- 83
2018-05-20 01:00:00 9 0 Calma 3 Sudoeste 0 -- -- 83
2018-05-20 00:00:00 9 0 Calma 4 Sur 0 -- -- 82
2018-05-19 23:00:00 9.6 0 Calma -- -- 0 -- -- 79
2018-05-19 22:00:00 11.4 0 Calma 3 Sudoeste 0 -- -- 75
2018-05-19 21:00:00 12.9 0 Calma 3 Nordeste 0 -- -- 72
2018-05-19 20:00:00 13.7 0 Calma 6 Sur 0 -- -- 74
2018-05-19 19:00:00 14 3 Sur 16 Sudeste 0 -- -- 66
2018-05-19 18:00:00 14.1 7 Sudoeste 28 Sudoeste 0 -- -- 62
2018-05-19 17:00:00 13.8 14 Sudoeste 32 Sur 0 -- -- 64
2018-05-19 16:00:00 17.1 6 Sudeste 22 Sur 0 -- -- 52
2018-05-19 15:00:00 18.8 9 Sudeste 18 Sudeste 0 -- -- 46
2018-05-19 14:00:00 19.5 5 Sudeste 14 Sur 0 -- -- 41
2018-05-19 13:00:00 19.6 5 Sudeste 10 Nordeste 0 -- -- 45
2018-05-19 12:00:00 18.2 4 Sudeste 8 Sur 0 -- -- 45
2018-05-19 11:00:00 16.6 4 Sudeste 6 Sudeste 0 -- -- 51
2018-05-19 10:00:00 13.2 3 Sudeste 4 Sudeste 0 -- -- 64
2018-05-19 09:00:00 9.2 2 Nordeste 6 Nordeste 0 -- -- 77
2018-05-19 08:00:00 5.8 0 Calma 4 Sudeste 0 -- -- 94
2018-05-19 07:00:00 5.3 0 Calma -- -- 0 -- -- 89
2018-05-19 06:00:00 5.8 0 Calma 3 Noroeste 0 -- -- 88
2018-05-19 05:00:00 6.5 0 Calma 3 Oeste 0 -- -- 87
2018-05-19 04:00:00 7.3 0 Calma 3 Oeste 0 -- -- 85
2018-05-19 03:00:00 8.2 0 Calma 2 Oeste 0 -- -- 85
2018-05-19 02:00:00 8.6 0 Calma 3 Sur 0 -- -- 84
2018-05-19 01:00:00 8.9 0 Calma 3 Noroeste 0 -- -- 83
2018-05-19 00:00:00 9.8 0 Calma 4 Este 0 -- -- 80
2018-05-18 23:00:00 10.9 2 Sudoeste 4 Oeste 0 -- -- 77
2018-05-18 22:00:00 12.7 0 Calma 3 Noroeste 0 -- -- 76
2018-05-18 21:00:00 13.8 2 Sur 20 Sur 0 -- -- 74
2018-05-18 20:00:00 14.4 12 Sur 26 Sudoeste 0 -- -- 69
2018-05-18 19:00:00 14.8 5 Sudeste 22 Sur 0 -- -- 66
2018-05-18 18:00:00 14.6 7 Sudoeste 31 Sudoeste 0 -- -- 67
2018-05-18 17:00:00 14.7 8 Sudoeste 24 Sudoeste 0 -- -- 66
2018-05-18 16:00:00 14.8 9 Sur 33 Sudeste 0 -- -- 69
2018-05-18 15:00:00 16.7 9 Sudeste 26 Sudoeste 0 -- -- 59
2018-05-18 14:00:00 17.2 10 Sudeste 24 Sudeste 0 -- -- 57
2018-05-18 13:00:00 17.2 6 Sudeste 22 Sur 0 -- -- 53
2018-05-18 12:00:00 17.6 8 Sudeste 22 Sudeste 0 -- -- 55
2018-05-18 11:00:00 16.2 7 Sur 20 Sudeste 0 -- -- 60
2018-05-18 10:00:00 13.5 3 Este 5 Este 0 -- -- 66
2018-05-18 09:00:00 9.6 2 Este 5 Este 0 -- -- 77
2018-05-18 08:00:00 6.3 0 Calma 2 Sur 0 -- -- 92
2018-05-18 07:00:00 5.6 0 Calma 4 Noroeste 0 -- -- 91
2018-05-18 06:00:00 5.8 0 Calma 0 Calma 0 -- -- 89
2018-05-18 05:00:00 6.3 0 Calma 2 Noroeste 0 -- -- 87
2018-05-18 04:00:00 6.9 0 Calma 3 Sur 0 -- -- 86
2018-05-18 03:00:00 7.6 0 Calma 2 Oeste 0 -- -- 84
2018-05-18 02:00:00 8.2 2 Sur 5 Sudoeste 0 -- -- 83
2018-05-18 01:00:00 8.7 0 Calma 3 Norte 0 -- -- 81
2018-05-18 00:00:00 9.1 0 Calma 3 Sudeste 0 -- -- 79
2018-05-17 23:00:00 10.2 0 Calma 3 Oeste 0 -- -- 76
2018-05-17 22:00:00 11.5 0 Calma 8 Sur 0 -- -- 71
2018-05-17 21:00:00 13.6 0 Calma 5 Sur 0 -- -- 65
2018-05-17 20:00:00 15.6 2 Sur 4 Sudoeste 0 -- -- 60
2018-05-17 19:00:00 17.3 0 Calma 14 Norte 0 -- -- 57
2018-05-17 18:00:00 18.7 4 Nordeste 14 Noroeste 0 -- -- 44
2018-05-17 17:00:00 18.3 5 Sudeste 13 Nordeste 0 -- -- 45
2018-05-17 16:00:00 18.9 4 Sudeste 19 Sudeste 0 -- -- 45
2018-05-17 15:00:00 18.4 10 Sudeste 20 Sudeste 0 -- -- 48
2018-05-17 14:00:00 17.2 6 Sudoeste 20 Sudeste 0 -- -- 53
2018-05-17 13:00:00 18.6 8 Sudeste 15 Sur 0 -- -- 47
2018-05-17 12:00:00 17.9 4 Sudeste 8 Sudeste 0 -- -- 50
2018-05-17 11:00:00 16.7 3 Este 5 Este 0 -- -- 58
2018-05-17 10:00:00 12.4 2 Sudeste 4 Este 0 -- -- 64
2018-05-17 09:00:00 8.8 2 Sudeste 4 Este 0 -- -- 80
2018-05-17 08:00:00 5.3 0 Calma 2 Norte 0 -- -- 92
2018-05-17 07:00:00 4.7 0 Calma 3 Noroeste 0 -- -- 92
2018-05-17 06:00:00 4.9 0 Calma 3 Oeste 0 -- -- 90
2018-05-17 05:00:00 5.2 0 Calma -- -- 0 -- -- 89
2018-05-17 04:00:00 5.5 0 Calma 2 Oeste 0 -- -- 88
2018-05-17 03:00:00 6 0 Calma 3 Oeste 0 -- -- 86
2018-05-17 02:00:00 6.4 0 Calma 4 Oeste 0 -- -- 87
2018-05-17 01:00:00 7.1 0 Calma 3 Oeste 0 -- -- 85
2018-05-17 00:00:00 7.8 0 Calma 2 Oeste 0 -- -- 82
2018-05-16 23:00:00 8.9 0 Calma 5 Sudoeste 0 -- -- 79
2018-05-16 22:00:00 10.1 0 Calma 4 Sudoeste 0 -- -- 75
2018-05-16 21:00:00 12 0 Calma 7 Este 0 -- -- 70
2018-05-16 20:00:00 13.6 3 Sudeste 14 Este 0 -- -- 66
2018-05-16 19:00:00 15.4 4 Sudeste 15 Nordeste 0 -- -- 62
2018-05-16 18:00:00 18.3 3 Sur 9 Este 0 -- -- 52
2018-05-16 17:00:00 18.1 2 Este 10 Sur 0 -- -- 47
2018-05-16 16:00:00 18.6 3 Este 15 Sudeste 0 -- -- 44
2018-05-16 15:00:00 18 5 Sudeste 14 Sudeste 0 -- -- 47
2018-05-16 14:00:00 17.7 5 Sudeste 20 Sudeste 0 -- -- 50
2018-05-16 13:00:00 18 7 Sudeste 18 Sur 0 -- -- 44
2018-05-16 12:00:00 16.7 9 Sudeste 18 Sudeste 0 -- -- 48
2018-05-16 11:00:00 16.2 5 Sudeste 8 Este 0 -- -- 58
2018-05-16 10:00:00 12.9 3 Sudeste 5 Sudeste 0 -- -- 59
2018-05-16 09:00:00 9.8 2 Este 5 Este 0 -- -- 77
2018-05-16 08:00:00 5.3 0 Calma 3 Este 0 -- -- 91
2018-05-16 07:00:00 4.9 0 Calma 4 Sur 0 -- -- 88
2018-05-16 06:00:00 5.5 0 Calma 4 Nordeste 0 -- -- 86
2018-05-16 05:00:00 5.9 2 Noroeste 5 Sudoeste 0 -- -- 87
2018-05-16 04:00:00 6.4 0 Calma 4 Norte 0 -- -- 86
2018-05-16 03:00:00 6.9 0 Calma 5 Nordeste 0 -- -- 84
2018-05-16 02:00:00 7.9 0 Calma 7 Oeste 0 -- -- 81
2018-05-16 01:00:00 8.3 2 Noroeste 6 Oeste 0 -- -- 82
2018-05-16 00:00:00 8.2 0 Calma 6 Sudoeste 0 -- -- 80
2018-05-15 23:00:00 8.6 2 Sur 12 Noroeste 0 -- -- 76
2018-05-15 22:00:00 9 2 Oeste 10 Noroeste 0 -- -- 71
2018-05-15 21:00:00 10.3 2 Sudeste 10 Sudeste 0 -- -- 67
2018-05-15 20:00:00 11.1 3 Sudeste 13 Nordeste 0 -- -- 69
2018-05-15 19:00:00 12.3 4 Este 17 Norte 0 -- -- 63
2018-05-15 18:00:00 12.1 5 Sudeste 14 Este 0 -- -- 67
2018-05-15 17:00:00 13.4 4 Sudeste 13 Este 0 -- -- 61
2018-05-15 16:00:00 12.5 2 Este 13 Norte 0 -- -- 62
2018-05-15 15:00:00 10.7 4 Nordeste 13 Norte 0 -- -- 66
2018-05-15 14:00:00 10 4 Nordeste 13 Noroeste 0 -- -- 68
2018-05-15 13:00:00 10.4 7 Norte 22 Norte 0 -- -- 63
2018-05-15 12:00:00 10.5 4 Norte 10 Nordeste 0 -- -- 67
2018-05-15 11:00:00 9.5 4 Nordeste 28 Norte 0 -- -- 66
2018-05-15 10:00:00 8.8 7 Nordeste 20 Noroeste 0 -- -- 64
2018-05-15 09:00:00 8.2 3 Norte 13 Nordeste 0 -- -- 68
2018-05-15 08:00:00 7.4 3 Norte 10 Sudeste 0 -- -- 75
2018-05-15 07:00:00 6.7 3 Sur 9 Norte 0 -- -- 76
2018-05-15 06:00:00 6.3 0 Calma 9 Norte 0 -- -- 74
2018-05-15 05:00:00 5.6 0 Calma 12 Oeste 0 -- -- 76
2018-05-15 04:00:00 5.9 6 Noroeste 18 Noroeste 0 -- -- 70
2018-05-15 03:00:00 6.1 0 Calma 15 Noroeste 0 -- -- 70
2018-05-15 02:00:00 6.6 4 Norte 14 Norte 0 -- -- 66
2018-05-15 01:00:00 6.9 4 Nordeste 30 Norte 0 -- -- 69
2018-05-15 00:00:00 7 5 Norte 21 Norte 0 -- -- 62
2018-05-14 23:00:00 7.1 10 Norte 28 Noroeste 0 -- -- 59
2018-05-14 22:00:00 6.9 4 Norte 30 Norte 0 -- -- 59
2018-05-14 21:00:00 6.9 11 Noroeste 32 Oeste 0 -- -- 57
2018-05-14 20:00:00 7.5 14 Noroeste 33 Norte 0 -- -- 55
2018-05-14 19:00:00 8.7 10 Noroeste 33 Norte 0 -- -- 54
2018-05-14 18:00:00 9.2 14 Norte 36 Norte 0 -- -- 54
2018-05-14 17:00:00 9.5 13 Norte 35 Noroeste 0 -- -- 55
2018-05-14 16:00:00 9 10 Norte 43 Noroeste 0 -- -- 60
2018-05-14 15:00:00 9.4 13 Norte 42 Norte 0 -- -- 54
2018-05-14 14:00:00 9.7 15 Noroeste 40 Norte 0 -- -- 49
2018-05-14 13:00:00 10.1 14 Norte 32 Norte 0 -- -- 45
2018-05-14 12:00:00 8.2 11 Noroeste 28 Noroeste 0 -- -- 53
2018-05-14 11:00:00 7.7 9 Norte 24 Norte 0 -- -- 52
2018-05-14 10:00:00 7.2 5 Norte 19 Nordeste 0 -- -- 55
2018-05-14 09:00:00 5 2 Este 21 Norte 0 -- -- 62
2018-05-14 08:00:00 2.6 6 Norte 20 Noroeste 0 -- -- 67
2018-05-14 07:00:00 1.3 0 Calma 13 Norte 0 -- -- 82
2018-05-14 06:00:00 1.5 4 Noroeste 18 Nordeste 0 -- -- 74
2018-05-14 05:00:00 1.7 2 Sudoeste 5 Sudeste 0 -- -- 85
2018-05-14 04:00:00 2.2 2 Oeste 8 Sur 0 -- -- 83
2018-05-14 03:00:00 2.5 2 Oeste 5 Sudoeste 0 -- -- 83
2018-05-14 02:00:00 2.1 0 Calma 5 Noroeste 0 -- -- 83
2018-05-14 01:00:00 2.3 0 Calma 8 Norte 0 -- -- 83
2018-05-11 20:00:00 17.8 0 Calma 14 Noroeste 0 -- -- 47
2018-05-11 19:00:00 19.5 0 Calma 9 Nordeste 0 -- -- 43
2018-05-11 18:00:00 20.3 3 Sur 15 Sudeste 0 -- -- 34
2018-05-11 17:00:00 20.5 6 Sudeste 19 Sur 0 -- -- 33
2018-05-11 16:00:00 20.6 6 Sudeste 18 Sur 0 -- -- 31
2018-05-11 15:00:00 19.9 8 Sudeste 18 Sudeste 0 -- -- 33
2018-05-11 14:00:00 19.3 5 Sur 23 Sudeste 0 -- -- 38
2018-05-11 13:00:00 18.2 8 Sudeste 17 Sudeste 0 -- -- 41
2018-05-11 12:00:00 17.5 5 Sudeste 8 Sur 0 -- -- 41
2018-05-11 11:00:00 15.1 3 Sudeste 5 Sudeste 0 -- -- 52
2018-05-11 10:00:00 12.1 0 Calma 5 Este 0 -- -- 65
2018-05-11 09:00:00 8 2 Este 5 Este 0 -- -- 84
2018-05-11 08:00:00 4.2 0 Calma 0 Calma 0 -- -- 93
2018-05-11 07:00:00 3.9 0 Calma -- -- 0 -- -- 92
2018-05-11 06:00:00 4.2 0 Calma 2 Oeste 0 -- -- 92
2018-05-11 05:00:00 4.5 0 Calma 2 Oeste 0 -- -- 89
2018-05-11 04:00:00 4.9 0 Calma 3 Oeste 0 -- -- 88
2018-05-11 03:00:00 5.6 0 Calma 5 Noroeste 0 -- -- 86
2018-05-11 02:00:00 6 0 Calma 2 Oeste 0 -- -- 86
2018-05-11 01:00:00 6.2 0 Calma 3 Oeste 0 -- -- 84
2018-05-11 00:00:00 6.8 0 Calma 4 Oeste 0 -- -- 81
2018-05-10 23:00:00 7.6 0 Calma 3 Oeste 0 -- -- 79
2018-05-10 22:00:00 8.7 0 Calma 5 Sur 0 -- -- 74
2018-05-10 21:00:00 10.4 2 Sudoeste 6 Sudeste 0 -- -- 70
2018-05-10 20:00:00 12.1 2 Sudoeste 12 Norte 0 -- -- 63
2018-05-10 19:00:00 13.7 2 Sudeste 18 Oeste 0 -- -- 58
2018-05-10 18:00:00 15.8 7 Norte 22 Noroeste 0 -- -- 48
2018-05-10 17:00:00 16.7 6 Norte 21 Norte 0 -- -- 45
2018-05-10 16:00:00 16.4 9 Noroeste 23 Norte 0 -- -- 44
2018-05-10 15:00:00 17.1 7 Norte 18 Noroeste 0 -- -- 40
2018-05-10 14:00:00 16.9 4 Este 17 Norte 0 -- -- 48
2018-05-10 13:00:00 16.1 3 Nordeste 13 Norte 0 -- -- 49
2018-05-10 12:00:00 15.6 4 Este 15 Norte 0 -- -- 51
2018-05-10 11:00:00 14 3 Sudeste 14 Nordeste 0 -- -- 54
2018-05-10 10:00:00 10.3 5 Nordeste 21 Nordeste 0 -- -- 68
2018-05-10 09:00:00 9.8 3 Este 10 Este 0 -- -- 66
2018-05-10 08:00:00 9 3 Sudeste 13 Noroeste 0 -- -- 71
2018-05-10 07:00:00 8.5 3 Norte 9 Norte 0 -- -- 72
2018-05-10 06:00:00 8.3 2 Noroeste 9 Noroeste 0 -- -- 72
2018-05-10 05:00:00 8.7 0 Calma 10 Nordeste 0 -- -- 73
2018-05-10 04:00:00 8.5 0 Calma 8 Norte 0 -- -- 76
2018-05-10 03:00:00 8.7 0 Calma 10 Noroeste 0 -- -- 76
2018-05-10 02:00:00 9.2 2 Sur 10 Sudeste 0 -- -- 77
2018-05-10 01:00:00 9.2 3 Oeste 12 Este 0 -- -- 76
2018-05-10 00:00:00 9.8 5 Sudeste 9 Sudeste 0 -- -- 78
2018-05-09 23:00:00 10.1 2 Noroeste 8 Noroeste 0 -- -- 74
2018-05-09 22:00:00 11.1 0 Calma 9 Sur 0 -- -- 71
2018-05-09 21:00:00 12 3 Sur 11 Nordeste 0 -- -- 68
2018-05-09 20:00:00 13.4 3 Nordeste 10 Norte 0 -- -- 63
2018-05-09 19:00:00 14.9 4 Sudeste 14 Nordeste 0 -- -- 61
2018-05-09 18:00:00 17.2 3 Sudeste 13 Norte 0 -- -- 56
2018-05-09 17:00:00 18.8 4 Nordeste 15 Nordeste 0 -- -- 53
2018-05-09 16:00:00 20.1 4 Sudeste 13 Norte 0 -- -- 53
2018-05-09 15:00:00 19.9 4 Este 11 Norte 0 -- -- 52
2018-05-09 14:00:00 19.4 3 Este 12 Nordeste 0 -- -- 51
2018-05-09 13:00:00 19 5 Este 16 Nordeste 0 -- -- 49
2018-05-09 12:00:00 18.2 5 Este 19 Nordeste 0 -- -- 44
2018-05-09 11:00:00 16.7 3 Nordeste 8 Nordeste 0 -- -- 51
2018-05-09 10:00:00 14.1 2 Este 8 Norte 0 -- -- 57
2018-05-09 09:00:00 10.9 3 Este 9 Norte 0 -- -- 70
2018-05-09 08:00:00 6.5 4 Norte 8 Norte 0 -- -- 88
2018-05-09 07:00:00 5.4 0 Calma 4 Noroeste 0 -- -- 90
2018-05-09 06:00:00 5.6 0 Calma 4 Noroeste 0 -- -- 89
2018-05-09 05:00:00 6 0 Calma 4 Sudeste 0 -- -- 89
2018-05-09 04:00:00 6.6 0 Calma 5 Sur 0 -- -- 87
2018-05-09 03:00:00 7.4 0 Calma 4 Sur 0 -- -- 86
2018-05-09 02:00:00 8.1 0 Calma 4 Oeste 0 -- -- 84
2018-05-09 01:00:00 9 2 Oeste 6 Noroeste 0 -- -- 82
2018-05-09 00:00:00 9.6 2 Noroeste 5 Noroeste 0 -- -- 80
2018-05-08 23:00:00 10.2 0 Calma 6 Noroeste 0 -- -- 79
2018-05-08 22:00:00 11 2 Sudoeste 7 Sur 0 -- -- 76
2018-05-08 21:00:00 12.7 2 Sudoeste 19 Noroeste 0 -- -- 70
2018-05-08 20:00:00 14.7 5 Norte 22 Norte 0 -- -- 59
2018-05-08 19:00:00 15.9 10 Noroeste 27 Noroeste 0 -- -- 53
2018-05-08 18:00:00 17.5 12 Noroeste 27 Norte 0 -- -- 49
2018-05-08 17:00:00 18.7 10 Norte 33 Norte 0 -- -- 48
2018-05-08 16:00:00 20.4 10 Norte 27 Norte 0 -- -- 44
2018-05-08 15:00:00 18.6 5 Norte 19 Noroeste 0 -- -- 48
2018-05-08 14:00:00 18.6 4 Norte 15 Noroeste 0 -- -- 49
2018-05-08 13:00:00 18.6 5 Sudoeste 20 Noroeste 0 -- -- 44
2018-05-08 12:00:00 19.1 3 Este 15 Nordeste 0 -- -- 48
2018-05-08 11:00:00 17.7 3 Sudeste 9 Sudeste 0 -- -- 57
2018-05-08 10:00:00 15 2 Sudeste 7 Este 0 -- -- 70
2018-05-08 09:00:00 11.9 2 Oeste 9 Norte 0 -- -- 92
2018-05-08 08:00:00 9.4 0 Calma 4 Sudoeste 0 -- -- 96
2018-05-08 07:00:00 9.5 0 Calma 5 Oeste 0 -- -- 95
2018-05-08 06:00:00 9.6 0 Calma 4 Sudoeste 0 -- -- 96
2018-05-08 05:00:00 9.8 0 Calma 4 Oeste 0 -- -- 96
2018-05-08 04:00:00 9.9 0 Calma 5 Sudeste 0 -- -- 96
2018-05-08 03:00:00 9.9 0 Calma 4 Sudoeste 0 -- -- 95
2018-05-08 02:00:00 10.2 0 Calma 5 Sudoeste 0 -- -- 95
2018-05-08 01:00:00 10.4 0 Calma 8 Noroeste 0.2 -- -- 95
2018-05-08 00:00:00 10.2 3 Noroeste 7 Nordeste 0.4 -- -- 95
2018-05-07 23:00:00 10.7 0 Calma 4 Oeste 0 -- -- 92
2018-05-07 22:00:00 11.2 0 Calma 3 Oeste 0 -- -- 92
2018-05-07 21:00:00 11.6 0 Calma 8 Sudoeste 2.2 -- -- 90
2018-05-07 20:00:00 12.1 4 Noroeste 35 Oeste 2.8 -- -- 85
2018-05-07 19:00:00 16.6 10 Sudoeste 30 Oeste 0 -- -- 67
2018-05-07 18:00:00 18.3 8 Sur 31 Sudeste 0 -- -- 60
2018-05-07 17:00:00 19.9 8 Sur 28 Sudeste 0 -- -- 56
2018-05-07 16:00:00 21.3 12 Sur 28 Sudeste 0 -- -- 51
2018-05-07 15:00:00 20.7 3 Este 8 Nordeste 0 -- -- 44
2018-05-07 14:00:00 17.1 3 Sudeste 15 Sudeste 0 -- -- 66
2018-05-07 13:00:00 17.1 8 Sudeste 16 Sur 0 -- -- 63
2018-05-07 12:00:00 16 6 Sudeste 15 Sudeste 0 -- -- 64
2018-05-07 11:00:00 15.5 7 Sudeste 22 Sur 0 -- -- 65
2018-05-07 10:00:00 13.6 7 Sudeste 19 Sur 0 -- -- 66
2018-05-07 09:00:00 10 2 Sudeste 4 Nordeste 0 -- -- 82
2018-05-07 08:00:00 8.4 0 Calma 3 Sur 0 -- -- 88
2018-05-07 07:00:00 7.8 0 Calma 4 Norte 0 -- -- 89
2018-05-07 06:00:00 7.8 0 Calma 3 Noroeste 0 -- -- 91
2018-05-07 05:00:00 7.4 0 Calma 4 Sudeste 0 -- -- 90
2018-05-07 04:00:00 7.7 0 Calma 4 Oeste 0 -- -- 88
2018-05-07 03:00:00 8.1 0 Calma 3 Norte 0 -- -- 88
2018-05-07 02:00:00 8.4 0 Calma 3 Noroeste 0 -- -- 88
2018-05-07 01:00:00 8.7 0 Calma 3 Sur 0 -- -- 85
2018-05-07 00:00:00 9.4 0 Calma 2 Oeste 0 -- -- 83
2018-05-06 23:00:00 10.5 0 Calma 3 Oeste 0 -- -- 81
2018-05-06 22:00:00 12.1 0 Calma 5 Norte 0 -- -- 77
2018-05-06 21:00:00 13.8 0 Calma 22 Sudoeste 0 -- -- 74
2018-05-06 20:00:00 15 4 Sudoeste 27 Sudeste 0 -- -- 68
2018-05-06 19:00:00 18.2 6 Sur 22 Sur 0 -- -- 55
2018-05-06 18:00:00 18 2 Sudoeste 19 Sudeste 0 -- -- 60
2018-05-06 17:00:00 18.6 6 Sur 20 Sudeste 0 -- -- 54
2018-05-06 16:00:00 19.9 11 Sudeste 23 Sur 0 -- -- 47
2018-05-06 15:00:00 20.3 12 Sudeste 23 Sudeste 0 -- -- 45
2018-05-06 14:00:00 20.2 9 Sudeste 24 Sudeste 0 -- -- 43
2018-05-06 13:00:00 18.6 9 Sudeste 21 Sudeste 0 -- -- 49
2018-05-06 12:00:00 18.9 5 Sudeste 8 Sudeste 0 -- -- 46
2018-05-06 11:00:00 16.3 2 Sudeste 5 Este 0 -- -- 53
2018-05-06 10:00:00 12.4 2 Nordeste 6 Este 0 -- -- 63
2018-05-06 09:00:00 8.8 0 Calma 5 Este 0 -- -- 81
2018-05-06 08:00:00 5.2 0 Calma -- -- 0 -- -- 94
2018-05-06 07:00:00 5 0 Calma 2 Noroeste 0 -- -- 93
2018-05-06 06:00:00 5.3 0 Calma 2 Sudoeste 0 -- -- 92
2018-05-06 05:00:00 5.6 0 Calma 2 Este 0 -- -- 91
2018-05-06 04:00:00 6.1 0 Calma 0 Calma 0 -- -- 89
2018-05-06 03:00:00 6.7 0 Calma 0 Calma 0 -- -- 88
2018-05-06 02:00:00 7.4 0 Calma 3 Sudoeste 0 -- -- 85
2018-05-06 01:00:00 8.3 0 Calma 3 Sudoeste 0 -- -- 84
2018-05-06 00:00:00 9.4 0 Calma 3 Sur 0 -- -- 81
2018-05-05 23:00:00 10.8 0 Calma 3 Sudoeste 0 -- -- 78
2018-05-05 22:00:00 12.6 0 Calma 15 Sur 0 -- -- 74
2018-05-05 21:00:00 13.4 4 Sudoeste 21 Sudoeste 0 -- -- 71
2018-05-05 20:00:00 14.3 4 Norte 18 Oeste 0 -- -- 73
2018-05-05 19:00:00 15.2 4 Nordeste 21 Este 0 -- -- 68
2018-05-05 18:00:00 16.1 10 Sudeste 24 Este 0 -- -- 63
2018-05-05 17:00:00 18.4 3 Sudeste 16 Norte 0 -- -- 51
2018-05-05 16:00:00 19.5 3 Este 14 Nordeste 0 -- -- 46
2018-05-05 15:00:00 19.8 3 Este 17 Norte 0 -- -- 47
2018-05-05 14:00:00 19.1 4 Nordeste 14 Nordeste 0 -- -- 45
2018-05-05 13:00:00 19.1 6 Nordeste 16 Nordeste 0 -- -- 43
2018-05-05 12:00:00 17.7 3 Norte 17 Nordeste 0 -- -- 48
2018-05-05 11:00:00 16.8 3 Oeste 15 Nordeste 0 -- -- 52
2018-05-05 10:00:00 14.5 4 Sudeste 13 Este 0 -- -- 61
2018-05-05 09:00:00 10.6 4 Sudeste 7 Sur 0 -- -- 69
2018-05-05 08:00:00 6.5 2 Sur 4 Sudeste 0 -- -- 86
2018-05-05 07:00:00 6 2 Oeste 5 Sudoeste 0 -- -- 85
2018-05-05 06:00:00 6.2 0 Calma 5 Oeste 0 -- -- 85
2018-05-05 05:00:00 6.3 0 Calma 5 Sur 0 -- -- 83
2018-05-05 04:00:00 7.1 0 Calma 5 Sudoeste 0 -- -- 80
2018-05-05 03:00:00 7.5 3 Sur 6 Sur 0 -- -- 79
2018-05-05 02:00:00 7.5 0 Calma 5 Noroeste 0 -- -- 79
2018-05-05 01:00:00 7.4 2 Oeste 6 Sudoeste 0 -- -- 78
2018-05-05 00:00:00 7.8 0 Calma 10 Este 0 -- -- 75
2018-05-04 23:00:00 8 0 Calma 6 Este 0 -- -- 73
2018-05-04 22:00:00 8.8 2 Sur 9 Nordeste 0 -- -- 70
2018-05-04 21:00:00 9.8 0 Calma 14 Norte 0 -- -- 65
2018-05-04 20:00:00 11.1 3 Nordeste 13 Norte 0 -- -- 64
2018-05-04 19:00:00 11.8 5 Nordeste 19 Nordeste 0 -- -- 61
2018-05-04 18:00:00 14.5 8 Norte 25 Norte 0 -- -- 52
2018-05-04 17:00:00 16 6 Norte 21 Este 0 -- -- 49
2018-05-04 16:00:00 16 8 Nordeste 25 Norte 0 -- -- 49
2018-05-04 15:00:00 14.8 8 Norte 22 Norte 0 -- -- 54
2018-05-04 14:00:00 16.1 9 Nordeste 27 Nordeste 0 -- -- 50
2018-05-04 13:00:00 16 5 Este 26 Norte 0 -- -- 54
2018-05-04 12:00:00 14.7 5 Este 22 Norte 0 -- -- 54
2018-05-04 11:00:00 12.5 5 Norte 27 Noroeste 0 -- -- 55
2018-05-04 10:00:00 11.9 7 Nordeste 23 Norte 0 -- -- 54
2018-05-04 09:00:00 7.9 5 Nordeste 14 Nordeste 0 -- -- 69
2018-05-04 08:00:00 5.9 0 Calma 10 Norte 0 -- -- 77
2018-05-04 07:00:00 5.1 2 Oeste 13 Nordeste 0 -- -- 77
2018-05-04 06:00:00 5 2 Noroeste 8 Nordeste 0 -- -- 77
2018-05-04 05:00:00 5.5 3 Noroeste 16 Norte 0 -- -- 71
2018-05-04 04:00:00 5.8 2 Noroeste 18 Nordeste 0 -- -- 71
2018-05-04 03:00:00 6.4 4 Este 21 Noroeste 0 -- -- 69
2018-05-04 02:00:00 6.9 6 Norte 22 Norte 0 -- -- 64
2018-05-04 01:00:00 6.2 2 Sudoeste 14 Nordeste 0 -- -- 69
2018-05-04 00:00:00 6.2 3 Norte 14 Norte 0 -- -- 69
2018-05-03 23:00:00 6.4 3 Noroeste 18 Nordeste 0 -- -- 66
2018-05-03 22:00:00 6.7 3 Norte 25 Norte 0 -- -- 65
2018-05-03 21:00:00 7.3 11 Norte 35 Norte 0 -- -- 56
2018-05-03 20:00:00 7.6 9 Norte 33 Norte 0 -- -- 58
2018-05-03 19:00:00 8.1 10 Noroeste 38 Norte 0 -- -- 58
2018-05-03 18:00:00 8.5 15 Noroeste 41 Noroeste 0 -- -- 58
2018-05-03 17:00:00 8.5 18 Noroeste 47 Noroeste 0 -- -- 59
2018-05-03 16:00:00 8.2 14 Norte 40 Noroeste 0 -- -- 59
2018-05-03 15:00:00 9.2 11 Norte 30 Norte 0 -- -- 54
2018-05-03 14:00:00 10.9 9 Nordeste 32 Noroeste 0 -- -- 49
2018-05-03 13:00:00 9.1 12 Norte 33 Noroeste 0 -- -- 55
2018-05-03 12:00:00 8.6 14 Norte 37 Nordeste 0 -- -- 55
2018-05-03 11:00:00 8.6 14 Norte 40 Noroeste 0 -- -- 57
2018-05-03 10:00:00 8.1 13 Norte 36 Noroeste 0 -- -- 61
2018-05-03 09:00:00 7.3 15 Norte 33 Noroeste 0 -- -- 64
2018-05-03 08:00:00 5.4 2 Noroeste 6 Norte 0 -- -- 95
2018-05-03 07:00:00 5.6 3 Oeste 19 Norte 0 -- -- 92
2018-05-03 06:00:00 6.1 4 Oeste 18 Norte 0 -- -- 88
2018-05-03 05:00:00 6.4 2 Oeste 4 Sur 0.2 -- -- 93
2018-05-03 04:00:00 6.7 0 Calma 5 Oeste 1.4 -- -- 91
2018-05-03 03:00:00 7.1 0 Calma 7 Oeste 0.4 -- -- 87
2018-05-03 02:00:00 7.6 0 Calma 14 Noroeste 0 -- -- 82
2018-05-03 01:00:00 8.3 6 Norte 22 Norte 0 -- -- 68
2018-05-03 00:00:00 8 3 Nordeste 21 Nordeste 0 -- -- 69
2018-05-02 23:00:00 7.4 3 Noroeste 12 Norte 0 -- -- 69
2018-05-02 22:00:00 8 3 Nordeste 14 Norte 0 -- -- 66
2018-05-02 21:00:00 8.5 0 Calma 8 Nordeste 0 -- -- 64
2018-05-02 20:00:00 9.4 4 Norte 16 Noroeste 0 -- -- 56
2018-05-02 19:00:00 10 7 Norte 19 Norte 0 -- -- 54
2018-05-02 18:00:00 11 5 Este 24 Norte 0 -- -- 51
2018-05-02 17:00:00 11.6 8 Norte 30 Norte 0 -- -- 49
2018-05-02 16:00:00 11.8 6 Noroeste 26 Noroeste 0 -- -- 44
2018-05-02 15:00:00 12.8 7 Norte 21 Nordeste 0 -- -- 38
2018-05-02 14:00:00 13.3 5 Norte 20 Norte 0 -- -- 36
2018-05-02 13:00:00 11.4 8 Sur 25 Sur 0 -- -- 38
2018-05-02 12:00:00 10.1 4 Sudeste 18 Norte 0 -- -- 43
2018-05-02 11:00:00 9.2 6 Norte 13 Nordeste 0 -- -- 45
2018-05-02 10:00:00 6.4 3 Este 8 Este 0 -- -- 57
2018-05-02 09:00:00 2.9 3 Sudeste 5 Este 0 -- -- 62
2018-05-02 08:00:00 -1.5 0 Calma 3 Noroeste 0 -- -- 77
2018-05-02 07:00:00 -2.1 0 Calma 3 Sudoeste 0 -- -- 75
2018-05-02 06:00:00 -2.2 0 Calma 4 Oeste 0 -- -- 76
2018-05-02 05:00:00 -2 0 Calma 4 Oeste 0 -- -- 81
2018-05-02 04:00:00 -1.5 0 Calma 3 Oeste 0 -- -- 81
2018-05-02 03:00:00 -1 2 Oeste 3 Oeste 0 -- -- 82
2018-05-02 02:00:00 -0.4 0 Calma 3 Oeste 0 -- -- 81
2018-05-02 01:00:00 0.4 0 Calma 5 Sudoeste 0 -- -- 79
2018-05-02 00:00:00 1.3 0 Calma 4 Norte 0 -- -- 77
2018-05-01 23:00:00 2.2 0 Calma 4 Sudoeste 0 -- -- 75
2018-05-01 22:00:00 3.3 0 Calma 6 Oeste 0 -- -- 71
2018-05-01 21:00:00 5 0 Calma 9 Noroeste 0 -- -- 64
2018-05-01 20:00:00 6.8 2 Oeste 12 Noroeste 0 -- -- 52
2018-05-01 19:00:00 7.8 7 Norte 27 Noroeste 0 -- -- 47
2018-05-01 18:00:00 9.3 9 Noroeste 27 Norte 0 -- -- 43
2018-05-01 17:00:00 10 7 Noroeste 30 Noroeste 0 -- -- 41
2018-05-01 16:00:00 10.2 11 Norte 30 Norte 0 -- -- 42
2018-05-01 15:00:00 9.6 11 Norte 26 Norte 0 -- -- 40
2018-05-01 14:00:00 9.3 10 Norte 27 Norte 0 -- -- 38
2018-05-01 13:00:00 8.8 10 Norte 24 Norte 0 -- -- 39
2018-05-01 12:00:00 8 6 Nordeste 19 Norte 0 -- -- 45
2018-05-01 11:00:00 7 9 Norte 24 Noroeste 0 -- -- 51
2018-05-01 10:00:00 7.1 6 Norte 23 Oeste 0 -- -- 58
2018-05-01 09:00:00 3.5 2 Este 8 Noroeste 0 -- -- 82
2018-05-01 08:00:00 1.9 0 Calma 3 Oeste 0 -- -- 93
2018-05-01 07:00:00 1 0 Calma 5 Oeste 0 -- -- 94
2018-05-01 06:00:00 0.3 0 Calma 4 Oeste 0 -- -- 94
2018-05-01 05:00:00 -0.1 0 Calma 4 Noroeste 0 -- -- 94
2018-05-01 04:00:00 -0.2 0 Calma 3 Sudoeste 0 -- -- 94
2018-05-01 03:00:00 -0.2 0 Calma 3 Sudoeste 0 -- -- 94
2018-05-01 02:00:00 0.1 0 Calma 4 Oeste 0 -- -- 94
2018-05-01 01:00:00 0.6 0 Calma 3 Oeste 0 -- -- 93
2018-05-01 00:00:00 1.1 0 Calma 3 Oeste 0 -- -- 92
2018-04-30 23:00:00 1.5 0 Calma 2 Oeste 0 -- -- 91
2018-04-30 22:00:00 2.4 0 Calma 5 Sur 0 -- -- 89
2018-04-30 21:00:00 3.7 0 Calma -- -- 0.2 -- -- 85
2018-04-30 20:00:00 4.1 0 Calma 13 Sudeste 0 -- -- 81
2018-04-30 19:00:00 4.9 3 Sudoeste 12 Sudoeste 0 -- -- 71
2018-04-30 18:00:00 5.5 4 Sur 10 Norte 0 -- -- 72
2018-04-30 17:00:00 5.5 3 Norte 17 Nordeste 0.2 -- -- 77
2018-04-30 16:00:00 6.8 6 Norte 19 Este 0 -- -- 66
2018-04-30 15:00:00 6.6 13 Sudeste 23 Sudeste 0 -- -- 65
2018-04-30 14:00:00 7.3 11 Sudeste 27 Sudeste 0 -- -- 68
2018-04-30 13:00:00 6.9 12 Sudeste 22 Sur 0 -- -- 64
2018-04-30 12:00:00 6.1 8 Sudeste 24 Sudeste 0 -- -- 73
2018-04-30 11:00:00 5.2 6 Oeste 22 Oeste 0.2 -- -- 76
2018-04-30 10:00:00 4.6 5 Oeste 23 Sudeste 0 -- -- 80
2018-04-30 09:00:00 3.9 8 Sur 19 Sudeste 0 -- -- 90
2018-04-30 08:00:00 2.3 5 Sur 22 Sudeste 0.2 -- -- 90
2018-04-30 07:00:00 2.6 6 Sudeste 24 Este 0.4 -- -- 92
2018-04-30 06:00:00 2.7 4 Sur 18 Oeste 1.4 -- -- 89
2018-04-30 05:00:00 3.2 4 Norte 19 Sudoeste 0 -- -- 90
2018-04-30 04:00:00 3 4 Noroeste 19 Oeste 0.4 -- -- 90
2018-04-30 03:00:00 2.5 6 Sudeste 17 Sur 0.4 -- -- 94
2018-04-30 02:00:00 2.6 4 Sur 12 Sur 0 -- -- 94
2018-04-30 01:00:00 2.6 3 Sur 19 Sudeste 0 -- -- 94
2018-04-30 00:00:00 2.6 2 Este 18 Sudeste 1 -- -- 94
2018-04-29 23:00:00 2.9 3 Norte 13 Sudoeste 0.4 -- -- 93
2018-04-29 22:00:00 3.2 3 Sur 19 Oeste 1.2 -- -- 91
2018-04-29 21:00:00 3.7 0 Calma 16 Sur 0 -- -- 93
2018-04-29 20:00:00 4.1 3 Sudeste 17 Sur 0.2 -- -- 91
2018-04-29 19:00:00 4.8 5 Sur 18 Sudoeste 2 -- -- 87
2018-04-29 18:00:00 6.1 6 Sur 20 Sur 0 -- -- 87
2018-04-29 17:00:00 6.6 4 Sudeste 12 Sudeste 0 -- -- 87
2018-04-29 16:00:00 4.9 3 Sudoeste 16 Sudoeste 0.4 -- -- 87
2018-04-29 15:00:00 4.2 5 Sur 17 Sudeste 0.8 -- -- 89
2018-04-29 14:00:00 5.1 3 Oeste 28 Sudoeste 3.6 -- -- 86
2018-04-29 13:00:00 8.6 4 Sudoeste 12 Sudeste 0 -- -- 69
2018-04-29 12:00:00 7.4 3 Este 6 Este 0 -- -- 82
2018-04-29 11:00:00 6 0 Calma 4 Nordeste 0 -- -- 90
2018-04-29 10:00:00 5.6 2 Sudeste 6 Sudoeste 0 -- -- 90
2018-04-29 09:00:00 4.7 3 Oeste 7 Noroeste 0.8 -- -- 94
2018-04-29 08:00:00 5.1 3 Sudoeste 12 Sur 1.4 -- -- 90
2018-04-29 07:00:00 5.4 0 Calma 9 Nordeste 1 -- -- 96
2018-04-29 06:00:00 5.5 0 Calma 21 Este 2.6 -- -- 93
2018-04-29 05:00:00 6.2 7 Sur 21 Sudeste 4.4 -- -- 88
2018-04-29 04:00:00 7 2 Oeste 19 Este 1.4 -- -- 93
2018-04-29 03:00:00 8.1 3 Noroeste 14 Oeste 2.8 -- -- 90
2018-04-29 02:00:00 9.3 5 Oeste 18 Oeste 2.6 -- -- 88
2018-04-29 01:00:00 9 3 Noroeste 11 Este 0 -- -- 94
2018-04-29 00:00:00 8.8 3 Norte 15 Sudeste 0 -- -- 95
2018-04-28 23:00:00 8.9 4 Sudeste 24 Sudeste 4.2 -- -- 90
2018-04-28 22:00:00 8.7 3 Sur 10 Sudoeste 4.4 -- -- 95
2018-04-28 21:00:00 9.1 4 Sudoeste 9 Sudoeste 0 -- -- 93
2018-04-28 20:00:00 9.6 3 Este 10 Sur 1.6 -- -- 91
2018-04-28 19:00:00 9.8 3 Sudoeste 10 Sudoeste 2.2 -- -- 88
2018-04-28 18:00:00 9.6 5 Sudeste 35 Sudoeste 10.6 -- -- 86
2018-04-28 17:00:00 13.5 9 Sur 35 Sudoeste 1.2 -- -- 63
2018-04-28 16:00:00 14.5 8 Sudoeste 24 Este 0 -- -- 51
2018-04-28 15:00:00 13.8 4 Sudoeste 22 Este 0.2 -- -- 64
2018-04-28 14:00:00 14.5 5 Norte 19 Sudoeste 0 -- -- 52
2018-04-28 13:00:00 14.2 10 Sudeste 33 Sudeste 0 -- -- 52
2018-04-28 12:00:00 13.8 6 Nordeste 19 Sudeste 0 -- -- 58
2018-04-28 11:00:00 13.2 4 Norte 27 Sudeste 0 -- -- 69
2018-04-28 10:00:00 12.8 6 Sudeste 20 Sur 0 -- -- 69
2018-04-28 09:00:00 12.3 3 Norte 23 Oeste 0 -- -- 74
2018-04-28 08:00:00 11.9 5 Norte 16 Este 0 -- -- 74
2018-04-28 07:00:00 11.8 6 Norte 21 Sudoeste 0 -- -- 76
2018-04-28 06:00:00 12 7 Noroeste 17 Oeste 0 -- -- 78
2018-04-28 05:00:00 11.9 6 Oeste 20 Sudeste 0 -- -- 78
2018-04-28 04:00:00 11.8 4 Nordeste 28 Oeste 0.8 -- -- 83
2018-04-28 03:00:00 11 2 Sudoeste 17 Oeste 0.2 -- -- 86
2018-04-28 02:00:00 11.1 0 Calma 6 Oeste 0 -- -- 83
2018-04-28 01:00:00 11.5 0 Calma 13 Sudeste 0 -- -- 80
2018-04-28 00:00:00 12.8 5 Sudoeste 21 Oeste 0 -- -- 74
2018-04-27 23:00:00 13.2 3 Noroeste 14 Oeste 0 -- -- 69
2018-04-27 22:00:00 12.6 6 Sudeste 24 Sudeste 0 -- -- 71
2018-04-27 21:00:00 13.8 3 Sudoeste 9 Sudeste 0 -- -- 58
2018-04-27 20:00:00 15.6 3 Sudeste 10 Noroeste 0 -- -- 51
2018-04-27 19:00:00 17 4 Norte 17 Este 0 -- -- 47
2018-04-27 18:00:00 18.7 9 Sudeste 22 Sudeste 0 -- -- 39
2018-04-27 17:00:00 18.7 7 Sudeste 25 Sudeste 0 -- -- 44
2018-04-27 16:00:00 19.3 8 Sudeste 26 Sudeste 0 -- -- 39
2018-04-27 15:00:00 19.9 6 Nordeste 27 Sudeste 0 -- -- 35
2018-04-27 14:00:00 19.1 14 Sudeste 29 Sudeste 0 -- -- 47
2018-04-27 13:00:00 18.5 12 Sudeste 22 Sudeste 0 -- -- 48
2018-04-27 12:00:00 17.4 5 Este 19 Sudoeste 0 -- -- 55
2018-04-27 11:00:00 16.5 4 Sudeste 8 Este 0 -- -- 56
2018-04-27 10:00:00 11.8 0 Calma 4 Noroeste 0 -- -- 68
2018-04-27 09:00:00 10 0 Calma 5 Sudeste 0 -- -- 78
2018-04-27 08:00:00 8.7 0 Calma 4 Sudeste 0 -- -- 81
2018-04-27 07:00:00 7.9 0 Calma 4 Norte 0 -- -- 84
2018-04-27 06:00:00 7.6 2 Oeste 4 Norte 0 -- -- 84
2018-04-27 05:00:00 7.3 0 Calma 3 Oeste 0 -- -- 82
2018-04-27 04:00:00 7.5 0 Calma 3 Oeste 0 -- -- 80
2018-04-27 03:00:00 7.9 0 Calma 3 Sudoeste 0 -- -- 79
2018-04-27 02:00:00 7.9 0 Calma 2 Oeste 0 -- -- 78
2018-04-27 01:00:00 8.3 0 Calma 0 Calma 0 -- -- 75
2018-04-27 00:00:00 9.3 0 Calma 4 Noroeste 0 -- -- 72
2018-04-26 23:00:00 10.5 0 Calma 4 Sudoeste 0 -- -- 69
2018-04-26 22:00:00 12 0 Calma 6 Sur 0 -- -- 64
2018-04-26 21:00:00 14.2 0 Calma 4 Oeste 0 -- -- 60
2018-04-26 20:00:00 16.9 2 Sur 14 Noroeste 0 -- -- 53
2018-04-26 19:00:00 18.9 4 Noroeste 10 Noroeste 0 -- -- 46
2018-04-26 18:00:00 21.2 2 Sudoeste 12 Sudeste 0 -- -- 43
2018-04-26 17:00:00 21.3 6 Sudeste 18 Sudeste 0 -- -- 41
2018-04-26 16:00:00 19.9 14 Sudeste 28 Sudeste 0 -- -- 42
2018-04-26 15:00:00 20 12 Sudeste 29 Sur 0 -- -- 50
2018-04-26 14:00:00 19.1 13 Sudeste 25 Sur 0 -- -- 53
2018-04-26 13:00:00 17.7 10 Sudeste 24 Sudeste 0 -- -- 56
2018-04-26 12:00:00 16.1 9 Sudeste 22 Sudeste 0 -- -- 59
2018-04-26 11:00:00 14.3 9 Sudeste 19 Sudeste 0 -- -- 63
2018-04-26 10:00:00 12.4 3 Sudeste 6 Sudeste 0 -- -- 65
2018-04-26 09:00:00 9.9 3 Sudeste 5 Sur 0 -- -- 72
2018-04-26 08:00:00 6.4 0 Calma 10 Sudoeste 0 -- -- 88
2018-04-26 07:00:00 6.2 2 Sudoeste 6 Norte 0 -- -- 87
2018-04-26 06:00:00 6.6 0 Calma 5 Sur 0 -- -- 85
2018-04-26 05:00:00 7 0 Calma 5 Oeste 0 -- -- 85
2018-04-26 04:00:00 7.7 2 Oeste 9 Sudoeste 0 -- -- 82
2018-04-26 03:00:00 7.9 0 Calma 3 Este 0 -- -- 84
2018-04-26 02:00:00 8.6 0 Calma 3 Oeste 0 -- -- 80
2018-04-26 01:00:00 9.4 0 Calma 4 Norte 0 -- -- 79
2018-04-26 00:00:00 10.1 0 Calma 7 Sudoeste 0 -- -- 77
2018-04-25 23:00:00 11.4 2 Sudoeste 9 Sur 0 -- -- 72
2018-04-25 22:00:00 12.8 2 Sur 10 Este 0 -- -- 69
2018-04-25 21:00:00 14.3 4 Sur 11 Sudeste 0 -- -- 67
2018-04-25 20:00:00 15.8 3 Sudoeste 13 Sudeste 0 -- -- 63
2018-04-25 19:00:00 18.1 4 Sudeste 9 Este 0 -- -- 59
2018-04-25 18:00:00 22.3 3 Norte 24 Norte 0 -- -- 43
2018-04-25 17:00:00 23.2 6 Norte 19 Noroeste 0 -- -- 34
2018-04-25 16:00:00 23.4 7 Noroeste 21 Norte 0 -- -- 35
2018-04-25 15:00:00 23.1 8 Sudoeste 22 Sudoeste 0 -- -- 33
2018-04-25 14:00:00 22.4 6 Norte 15 Noroeste 0 -- -- 35
2018-04-25 13:00:00 21.8 4 Este 10 Este 0 -- -- 41
2018-04-25 12:00:00 20.1 3 Sudeste 5 Este 0 -- -- 46
2018-04-25 11:00:00 16.9 3 Sudeste 6 Este 0 -- -- 52
2018-04-25 10:00:00 13.6 0 Calma 4 Este 0 -- -- 64
2018-04-25 09:00:00 9.4 0 Calma 3 Sudeste 0 -- -- 81
2018-04-25 08:00:00 6.9 0 Calma -- -- 0 -- -- 89
2018-04-25 07:00:00 6.7 0 Calma -- -- 0 -- -- 87
2018-04-25 06:00:00 7 0 Calma 3 Norte 0 -- -- 86
2018-04-25 05:00:00 7.5 0 Calma 3 Noroeste 0 -- -- 86
2018-04-25 04:00:00 8 0 Calma 3 Sudoeste 0 -- -- 84
2018-04-25 03:00:00 8.6 0 Calma 2 Norte 0 -- -- 81
2018-04-25 02:00:00 9.1 0 Calma 3 Oeste 0 -- -- 80
2018-04-25 01:00:00 9.9 0 Calma 3 Noroeste 0 -- -- 76
2018-04-25 00:00:00 11 0 Calma 4 Sur 0 -- -- 73
2018-04-24 23:00:00 12.2 0 Calma 3 Oeste 0 -- -- 69
2018-04-24 22:00:00 13.9 0 Calma 8 Sudoeste 0 -- -- 65
2018-04-24 21:00:00 16.2 3 Norte 11 Noroeste 0 -- -- 56
2018-04-24 20:00:00 19 3 Oeste 12 Noroeste 0 -- -- 52
2018-04-24 19:00:00 19.9 0 Calma 10 Oeste 0 -- -- 49
2018-04-24 18:00:00 22 6 Este 17 Sur 0 -- -- 39
2018-04-24 17:00:00 22.3 7 Sudeste 19 Sur 0 -- -- 37
2018-04-24 16:00:00 22.3 6 Sudeste 15 Sudeste 0 -- -- 33
2018-04-24 15:00:00 21.8 8 Sudeste 20 Sudeste 0 -- -- 36
2018-04-24 14:00:00 20.9 10 Sudeste 21 Sudeste 0 -- -- 42
2018-04-24 13:00:00 20.1 11 Sudeste 19 Sudeste 0 -- -- 41
2018-04-24 12:00:00 18.8 4 Este 10 Este 0 -- -- 43
2018-04-24 11:00:00 16.1 2 Este 4 Este 0 -- -- 50
2018-04-24 10:00:00 12.2 0 Calma 4 Este 0 -- -- 64
2018-04-24 09:00:00 7.5 0 Calma 3 Norte 0 -- -- 89
2018-04-24 08:00:00 4.7 0 Calma -- -- 0 -- -- 92
2018-04-24 07:00:00 4.4 0 Calma 2 Noroeste 0 -- -- 90
2018-04-24 06:00:00 4.7 0 Calma -- -- 0 -- -- 90
2018-04-24 05:00:00 5 0 Calma -- -- 0 -- -- 89
2018-04-24 04:00:00 5.4 0 Calma -- -- 0 -- -- 88
2018-04-24 03:00:00 5.9 0 Calma 3 Sudoeste 0 -- -- 87
2018-04-24 02:00:00 6.5 0 Calma 4 Norte 0 -- -- 86
2018-04-24 01:00:00 7 0 Calma 2 Oeste 0 -- -- 84
2018-04-24 00:00:00 7.8 0 Calma 3 Oeste 0 -- -- 83
2018-04-23 23:00:00 8.8 0 Calma 3 Oeste 0 -- -- 79
2018-04-23 22:00:00 9.9 0 Calma 3 Sur 0 -- -- 76
2018-04-23 21:00:00 11.7 0 Calma 9 Sudoeste 0 -- -- 70
2018-04-23 20:00:00 13.8 3 Noroeste 6 Este 0 -- -- 68
2018-04-23 19:00:00 15.2 0 Calma 4 Sur 0 -- -- 58
2018-04-23 18:00:00 14.8 2 Sudeste 5 Sudeste 0 -- -- 62
2018-04-23 17:00:00 13.7 4 Este 18 Sur 0 -- -- 78
2018-04-23 16:00:00 12.3 8 Sudeste 26 Sudeste 0.2 -- -- 79
2018-04-23 15:00:00 14.4 8 Oeste 23 Oeste 0 -- -- 68
2018-04-23 14:00:00 16 5 Este 23 Este 0 -- -- 59
2018-04-23 13:00:00 17.1 8 Sudeste 18 Este 0 -- -- 55
2018-04-23 12:00:00 15.2 0 Calma 3 Este 0 -- -- 57
2018-04-23 11:00:00 13.3 0 Calma 6 Este 0 -- -- 63
2018-04-23 10:00:00 11.2 0 Calma 5 Este 0 -- -- 71
2018-04-23 09:00:00 9.1 0 Calma 3 Nordeste 0 -- -- 84
2018-04-23 08:00:00 7.9 0 Calma 5 Sudeste 0 -- -- 87
2018-04-23 07:00:00 7.6 0 Calma 5 Sur 0 -- -- 86
2018-04-23 06:00:00 7.3 0 Calma 5 Sudeste 0 -- -- 88
2018-04-23 05:00:00 7.3 0 Calma 5 Este 0 -- -- 85
2018-04-23 04:00:00 7.8 0 Calma 4 Este 0 -- -- 83
2018-04-23 03:00:00 8.4 0 Calma 4 Este 0 -- -- 81
2018-04-23 02:00:00 9.3 0 Calma 4 Sudeste 0 -- -- 78
2018-04-23 01:00:00 10.6 0 Calma 6 Sur 0 -- -- 75
2018-04-23 00:00:00 12.2 0 Calma 6 Sudoeste 0 -- -- 70
2018-04-22 23:00:00 13.9 3 Sudoeste 15 Oeste 0 -- -- 65
2018-04-22 22:00:00 15.7 3 Sur 15 Sudeste 0 -- -- 62
2018-04-22 21:00:00 17.3 4 Norte 17 Sudoeste 0 -- -- 51
2018-04-22 20:00:00 18.8 3 Norte 19 Este 0 -- -- 49
2018-04-22 19:00:00 19.2 0 Calma 14 Noroeste 0 -- -- 46
2018-04-22 18:00:00 19.7 6 Noroeste 15 Noroeste 0 -- -- 37
2018-04-22 17:00:00 19.5 8 Sudeste 21 Sudeste 0 -- -- 41
2018-04-22 16:00:00 20.3 6 Sur 18 Sudoeste 0 -- -- 37
2018-04-22 15:00:00 20.7 9 Este 29 Este 0 -- -- 36
2018-04-22 14:00:00 20.8 9 Sudeste 24 Sudeste 0 -- -- 33
2018-04-22 13:00:00 20.2 6 Sudeste 10 Sudeste 0 -- -- 31
2018-04-22 12:00:00 17.7 2 Nordeste 5 Este 0 -- -- 37
2018-04-22 11:00:00 15.1 0 Calma 5 Este 0 -- -- 41
2018-04-22 10:00:00 11 0 Calma 4 Noroeste 0 -- -- 57
2018-04-22 09:00:00 6.8 0 Calma 3 Noroeste 0 -- -- 81
2018-04-22 08:00:00 5.7 0 Calma 4 Noroeste 0 -- -- 81
2018-04-22 07:00:00 5.9 0 Calma 4 Sur 0 -- -- 79
2018-04-22 06:00:00 6.3 0 Calma -- -- 0 -- -- 80
2018-04-22 05:00:00 6.7 0 Calma 2 Oeste 0 -- -- 79
2018-04-22 04:00:00 7 0 Calma 4 Noroeste 0 -- -- 78
2018-04-22 03:00:00 7.2 0 Calma 3 Sudoeste 0 -- -- 77
2018-04-22 02:00:00 7.6 0 Calma 2 Sudoeste 0 -- -- 74
2018-04-22 01:00:00 8.2 0 Calma 2 Oeste 0 -- -- 73
2018-04-22 00:00:00 9.3 0 Calma 3 Sur 0 -- -- 69